• Join FlightAware (Why Join?)
  • Login
  • US Flag 
07:23PM EDT


 

Airport Tracker/Info


-or-


 

Live Flight TrackerFlight Track Log ✈ N700QA ✈ 05-Nov-2013 ✈ KLAX - KSAT

Flight Track Log - Related Links

Times and Time Zones

All times are in EST time to prevent confusion due to time zone crossing. See the N700QA flight status page for this flight to view local times or setup timezone preferences in your user account.

Time Position Orientation Groundspeed Altitude Reporting Facility
EST Latitude Longitude Course Direction KTS MPH feet Rate Location/Type
11:23AM 33.9167 -118.4667 212° Southwest 216 249 2,100  Level Southern California TRACON
11:24AM 33.8617 -118.5083 212° Southwest 260 299 4,700 2,220 Climbing Los Angeles Center
11:25AM 33.7661 -118.5167 184° South 289 333 7,400 2,220 Climbing Los Angeles Center
11:26AM 33.6972 -118.4767 154° Southeast 299 344 9,400 1,920 Climbing Los Angeles Center
11:27AM 33.6692 -118.3842 110° East 300 345 11,400 1,560 Climbing Los Angeles Center
11:28AM 33.6436 -118.2892 108° East 305 351 12,700 1,200 Climbing Los Angeles Center
11:29AM 33.6342 -118.1561 95° East 340 391 13,900 1,080 Climbing Los Angeles Center
11:30AM 33.6361 -118.0400 89° East 348 400 15,000 480 Climbing Los Angeles Center
11:31AM 33.6372 -117.9233 89° East 352 405 15,000  Level Los Angeles Center
11:32AM 33.6367 -117.8111 90° East 342 394 15,100 480 Climbing Los Angeles Center
11:33AM 33.6381 -117.7000 89° East 335 386 16,100 900 Climbing Los Angeles Center
11:34AM 33.6369 -117.5650 91° East 339 390 17,000 600 Climbing Los Angeles Center
11:35AM 33.6367 -117.4717 90° East 347 399 17,400 660 Climbing Los Angeles Center
11:36AM 33.6375 -117.3264 90° East 362 417 18,400 960 Climbing Los Angeles Center
11:37AM 33.6361 -117.2039 91° East 369 425 19,500 1,200 Climbing Los Angeles Center
11:38AM 33.6372 -117.0806 89° East 370 426 20,900 1,200 Climbing Los Angeles Center
11:40AM 33.6356 -116.9567 91° East 372 428 22,300 1,320 Climbing Los Angeles Center
11:41AM 33.6350 -116.7908 90° East 370 426 24,000 1,440 Climbing Los Angeles Center
11:42AM 33.6342 -116.6647 90° East 376 433 25,300 1,260 Climbing Los Angeles Center
11:43AM 33.6322 -116.5394 91° East 375 432 26,700 1,080 Climbing Los Angeles Center
11:44AM 33.6322 -116.4164 90° East 369 425 27,600 600 Climbing Los Angeles Center
11:45AM 33.6306 -116.2606 91° East 384 442 28,000 240 Climbing Los Angeles Center
11:46AM 33.6292 -116.1219 91° East 408 470 28,100  Climbing Los Angeles Center
11:47AM 33.6247 -115.9875 92° East 405 466 28,000 -60 Descending Los Angeles Center
11:48AM 33.6225 -115.8544 91° East 398 458 28,000 480 Level Los Angeles Center
11:49AM 33.6197 -115.7178 91° East 406 467 29,000 960 Climbing Los Angeles Center
11:50AM 33.6153 -115.5825 92° East 406 467 30,000 900 Climbing Los Angeles Center
11:51AM 33.6133 -115.4489 91° East 402 463 30,900 1,020 Climbing Los Angeles Center
11:52AM 33.6092 -115.2903 92° East 397 457 32,200 1,020 Climbing Los Angeles Center
11:53AM 33.6006 -115.1567 94° East 402 463 33,100 720 Climbing Los Angeles Center
11:54AM 33.5781 -115.0300 102° East 392 451 33,700 480 Climbing Los Angeles Center
11:55AM 33.5558 -114.8961 101° East 411 473 34,100 480 Climbing Los Angeles Center
11:56AM 33.5344 -114.7681 101° East 396 456 34,700 420 Climbing Los Angeles Center
11:57AM 33.5125 -114.6375 101° East 400 460 35,000 180 Climbing Los Angeles Center
11:58AM 33.4881 -114.4811 101° East 404 465 35,100  Climbing Los Angeles Center
11:59AM 33.4636 -114.3481 102° East 406 467 35,000  Descending Los Angeles Center
12:00PM 33.4408 -114.2117 101° East 414 476 35,100  Climbing Los Angeles Center
12:01PM 33.4136 -114.0450 101° East 423 487 35,100  Level Los Angeles Center
12:03PM 33.3858 -113.8669 101° East 426 490 35,100 -60 Level Albuquerque Center
12:04PM 33.3600 -113.7375 103° East 429 494 35,000 -60 Descending Los Angeles Center
12:05PM 33.3303 -113.5683 102° East 432 497 35,000  Level Los Angeles Center
12:06PM 33.3069 -113.4275 101° East 433 498 35,000  Level Los Angeles Center
12:07PM 33.2803 -113.2706 101° East 438 504 35,100  Climbing Albuquerque Center
12:08PM 33.2550 -113.1275 102° East 438 504 35,100  Level Albuquerque Center
12:09PM 33.2289 -112.9847 102° East 438 504 35,100 -60 Level Albuquerque Center
12:10PM 33.2031 -112.8403 102° East 442 509 35,000 -60 Descending Albuquerque Center
12:11PM 33.1761 -112.6997 103° East 438 504 35,000  Level Albuquerque Center
12:12PM 33.1511 -112.5556 102° East 439 505 35,000  Level Albuquerque Center
12:13PM 33.1181 -112.3839 103° East 440 506 35,000  Level Albuquerque Center
12:14PM 33.0933 -112.2447 102° East 438 504 35,000  Level Albuquerque Center
12:15PM 33.0667 -112.1000 102° East 440 506 35,000  Level Albuquerque Center
12:16PM 33.0414 -111.9619 102° East 438 504 35,000  Level Albuquerque Center
12:17PM 33.0147 -111.8208 103° East 439 505 35,100  Climbing Albuquerque Center
12:18PM 32.9869 -111.6806 103° East 438 504 35,000  Descending Albuquerque Center
12:19PM 32.9550 -111.5108 103° East 440 506 35,100  Climbing Albuquerque Center
12:20PM 32.9281 -111.3708 103° East 438 504 35,000  Descending Albuquerque Center
12:21PM 32.9008 -111.2275 103° East 443 510 35,100  Climbing Albuquerque Center
12:22PM 32.8728 -111.0867 103° East 442 509 35,000  Descending Albuquerque Center
12:23PM 32.8444 -110.9453 103° East 442 509 35,100  Climbing Albuquerque Center
12:24PM 32.8111 -110.7744 103° East 443 510 35,000  Descending Albuquerque Center
12:25PM 32.7811 -110.6283 104° East 442 509 35,100  Climbing Albuquerque Center
12:27PM 32.7522 -110.4872 104° East 442 509 35,100 -60 Level Albuquerque Center
12:28PM 32.7236 -110.3453 103° East 442 509 35,000  Descending Albuquerque Center
12:29PM 32.6950 -110.2042 104° East 442 509 35,100  Climbing Albuquerque Center
12:30PM 32.6653 -110.0633 104° East 441 507 35,000 -60 Descending Albuquerque Center
12:31PM 32.6358 -109.9225 104° East 441 507 35,000  Level Albuquerque Center
12:32PM 32.5997 -109.7553 104° East 439 505 35,000  Level Albuquerque Center
12:33PM 32.5681 -109.6117 105° East 450 518 35,000  Level Albuquerque Center
12:34PM 32.5375 -109.4722 105° East 446 513 35,000  Level Albuquerque Center
12:35PM 32.5103 -109.3325 103° East 440 506 35,000  Level Albuquerque Center
12:36PM 32.4800 -109.1928 104° East 442 509 35,000  Level Albuquerque Center
12:37PM 32.4492 -109.0536 105° East 442 509 35,000  Level Albuquerque Center
12:38PM 32.4133 -108.8858 104° East 441 507 35,100  Climbing Albuquerque Center
12:39PM 32.3819 -108.7458 105° East 443 510 35,000 -60 Descending Albuquerque Center
12:40PM 32.3511 -108.6053 105° East 443 510 35,000  Level Albuquerque Center
12:41PM 32.3206 -108.4631 104° East 446 513 35,100  Climbing Albuquerque Center
12:42PM 32.2889 -108.3206 105° East 445 512 35,000 -60 Descending Albuquerque Center
12:43PM 32.2583 -108.1803 104° East 444 511 35,000  Level Albuquerque Center
12:44PM 32.2203 -108.0114 105° East 445 512 35,100  Climbing Albuquerque Center
12:45PM 32.1894 -107.8706 104° East 446 513 35,000 -60 Descending Albuquerque Center
12:46PM 32.1558 -107.7283 106° East 448 516 35,000  Level Albuquerque Center
12:47PM 32.1239 -107.5883 105° East 449 517 35,000  Level Albuquerque Center
12:48PM 32.0922 -107.4483 105° East 447 514 35,000  Level Albuquerque Center
12:49PM 32.0550 -107.2814 105° East 446 513 35,000  Level Albuquerque Center
12:50PM 32.0225 -107.1408 105° East 447 514 35,000  Level Albuquerque Center
12:51PM 31.9894 -107.0019 106° East 446 513 35,000  Level Albuquerque Center
12:52PM 31.9575 -106.8619 105° East 447 514 35,000  Level Albuquerque Center
12:53PM 31.9233 -106.7208 106° East 451 519 35,000  Level Albuquerque Center
12:54PM 31.8828 -106.5522 106° East 449 517 35,000  Level Albuquerque Center
12:55PM 31.8500 -106.4089 105° East 453 521 35,000  Level Albuquerque Center
12:56PM 31.8164 -106.2644 105° East 458 527 35,000  Level Albuquerque Center
12:57PM 31.7725 -106.1047 108° East 454 522 35,100  Climbing Albuquerque Center
12:58PM 31.7367 -105.9625 106° East 454 522 35,000  Descending Albuquerque Center
01:00PM 31.7011 -105.8203 106° East 454 522 35,100  Climbing Albuquerque Center
01:01PM 31.6625 -105.6672 106° East 453 521 35,000 -60 Descending Albuquerque Center
01:02PM 31.6264 -105.5258 107° East 453 521 35,000  Level Albuquerque Center
01:03PM 31.5906 -105.3844 107° East 453 521 35,100  Climbing Albuquerque Center
01:04PM 31.5553 -105.2483 107° East 456 525 35,100 -60 Level Albuquerque Center
01:05PM 31.5175 -105.1064 107° East 456 525 35,000  Descending Albuquerque Center
01:06PM 31.4792 -104.9364 105° East 454 522 35,100  Climbing Albuquerque Center
01:07PM 31.4419 -104.7953 107° East 453 521 35,000  Descending Albuquerque Center
01:08PM 31.4050 -104.6536 107° East 456 525 35,100  Climbing Albuquerque Center
01:09PM 31.3675 -104.5131 107° East 456 525 35,000  Descending Albuquerque Center
01:10PM 31.3306 -104.3711 107° East 457 526 35,100  Climbing Albuquerque Center
01:11PM 31.2931 -104.2281 107° East 460 529 35,100  Level Albuquerque Center
01:12PM 31.2478 -104.0558 107° East 463 533 35,100  Level Albuquerque Center
01:13PM 31.2092 -103.9150 108° East 460 529 35,100  Level Albuquerque Center
01:14PM 31.1717 -103.7744 107° East 455 524 35,100  Level Albuquerque Center
01:15PM 31.1328 -103.6336 108° East 457 526 35,100  Level Albuquerque Center
01:16PM 31.0964 -103.4939 107° East 454 522 35,100  Level Albuquerque Center
01:17PM 31.0572 -103.3539 108° East 455 524 35,100  Level Albuquerque Center
01:18PM 31.0111 -103.1850 108° East 457 526 35,100  Level Albuquerque Center
01:19PM 30.9722 -103.0439 108° East 458 527 35,100  Level Albuquerque Center
01:20PM 30.9336 -102.9044 108° East 457 526 35,100  Level Albuquerque Center
01:21PM 30.8992 -102.7631 106° East 457 526 35,100  Level Albuquerque Center
01:22PM 30.8619 -102.6231 107° East 457 526 35,100  Level Albuquerque Center
01:23PM 30.8247 -102.4836 107° East 456 525 35,100  Level Albuquerque Center
01:24PM 30.7831 -102.3161 106° East 455 524 35,100  Level Albuquerque Center
01:25PM 30.7453 -102.1769 107° East 455 524 35,100  Level Albuquerque Center
01:26PM 30.7083 -102.0386 107° East 453 521 35,100  Level Albuquerque Center
01:27PM 30.6711 -101.8997 107° East 453 521 35,100  Level Albuquerque Center
01:29PM 30.6211 -101.7075 107° East 449 517 35,100  Level Houston Center
01:30PM 30.5842 -101.5700 107° East 450 518 35,100  Level Houston Center
01:31PM 30.5381 -101.4067 108° East 448 516 35,100  Level Houston Center
01:32PM 30.5011 -101.2694 107° East 446 513 35,100  Level Houston Center
01:33PM 30.4647 -101.1328 107° East 445 512 35,100  Level Houston Center
01:34PM 30.4281 -100.9956 107° East 447 514 35,100 -60 Level Houston Center
01:35PM 30.3892 -100.8611 109° East 443 510 35,000 -720 Descending Houston Center
01:36PM 30.3511 -100.7211 107° East 445 512 33,700 -1,440 Descending Houston Center
01:37PM 30.3144 -100.5872 108° East 445 512 32,100 -1,740 Descending Houston Center
01:38PM 30.2694 -100.4231 108° East 443 510 30,200 -1,620 Descending Houston Center
01:39PM 30.2308 -100.2836 108° East 447 514 28,800 -1,320 Descending Houston Center
01:40PM 30.1911 -100.1461 108° East 443 510 27,500 -1,800 Descending Houston Center
01:41PM 30.1525 -100.0067 108° East 447 514 25,100 -2,280 Descending Houston Center
01:42PM 30.1142 -99.8708 108° East 444 511 22,800 -2,220 Descending Houston Center
01:43PM 30.0767 -99.7467 109° East 414 476 20,600 -2,160 Descending Houston Center
01:44PM 30.0433 -99.6264 108° East 396 456 18,400 -2,040 Descending Houston Center
01:45PM 30.0092 -99.5083 108° East 389 448 16,400 -2,100 Descending Houston Center
01:46PM 29.9694 -99.3661 108° East 388 447 14,100 -2,160 Descending Houston Center
01:47PM 29.9439 -99.2856 110° East 380 437 12,600 -1,980 Descending Houston Center
01:47PM 29.9361 -99.2556 107° East 367 422 12,100 -1,980 Descending Houston Center
01:48PM 29.9136 -99.1758 108° East 358 412 10,600 -1,680 Descending Houston Center
01:48PM 29.9039 -99.1497 113° Southeast 349 402 10,400 -1,200 Descending Houston Center
01:49PM 29.8739 -99.0817 117° Southeast 290 334 9,400 -1,260 Descending Houston Center
01:49PM 29.8633 -99.0550 115° Southeast 291 335 9,100 -1,320 Descending Houston Center
01:50PM 29.8378 -99.0039 120° Southeast 260 299 8,100 -1,260 Descending Houston Center
01:50PM 29.8281 -98.9811 116° Southeast 266 306 7,800 -1,500 Descending Houston Center
01:51PM 29.8039 -98.9283 118° Southeast 265 305 6,600 -1,800 Descending Houston Center
01:51PM 29.7906 -98.8986 117° Southeast 269 310 6,000 -1,380 Descending Houston Center
01:52PM 29.7656 -98.8508 121° Southeast 262 302 5,100 -1,080 Descending Houston Center
01:53PM 29.7575 -98.8281 112° Southeast 252 290 4,900 -900 Descending Houston Center
01:53PM 29.7375 -98.7942 124° Southeast 213 245 4,300 -720 Descending Houston Center
01:54PM 29.7278 -98.7681 113° Southeast 222 255 4,200 -300 Descending Houston Center
01:54PM 29.7108 -98.7322 119° Southeast 216 249 4,000 -120 Descending Houston Center
01:55PM 29.6967 -98.7014 118° Southeast 219 252 4,100  Climbing Houston Center
01:55PM 29.6753 -98.6619 122° Southeast 219 252 4,000 -120 Descending Houston Center
01:56PM 29.6658 -98.6411 118° Southeast 218 251 4,000 -300 Level Houston Center
01:56PM 29.6392 -98.6108 135° Southeast 195 224 3,700 -600 Descending Houston Center
01:57PM 29.6247 -98.5911 130° Southeast 202 232 3,400 -1,200 Descending Houston Center
01:57PM 29.6011 -98.5625 134° Southeast 208 239 2,500 -1,260 Descending Houston Center
01:58PM 29.5869 -98.5414 128° Southeast 204 235 2,100 -1,020 Descending Houston Center
01:58PM 29.5700 -98.5206 133° Southeast 185 213 1,600 -840 Descending Houston Center
01:59PM 29.5561 -98.5000 128° Southeast 154 177 1,300 -480 Descending Houston Center
02:00PM 29.5378 -98.4753 130° Southeast 111 128 900 -420 Descending Houston Center
02:02PM 29.5333 -98.4667 120° Southeast  Level FlightAware Approximate
02:09PM 29.5340 -98.4691 120° Southeast  Level Estimated
02:10PM 29.5333 -98.4667 120° Southeast  Level FlightAware Approximate